Terminal Aerodrome Forecast
Issued by NWS

Home | Current Version | Previous Version | Text Only | Print | Product List | Glossary On
Versions: 1 2 3 4 5 6 7 8 9 10 11 12 13
000
FTUS46 KSEW 291004 AAA
TAFBFI
TAF AMD
KBFI 291004Z 2910/3006 21007KT P6SM VCFG SCT009
     FM291100 21007KT P6SM VCFG OVC009
     FM291800 20006KT P6SM BKN019
     FM291900 28005KT P6SM FEW040 SCT250
     FM300300 VRB03KT P6SM FEW040 SCT060 BKN250=

USA.gov is the U.S. government's official web portal to all federal, state and local government web resources and services.